Current Weather

Lansing Muni

Chicago, Illinois (KIGQ)

Report from: Tuesday, July 16, 2024 9:55 AM CDT
Current time: Tuesday, July 16, 2024 10:17 AM CDT

Nearby weather – Weather history – Daily summaries
Weather forecast

Temperature23.6°C (74.5°F)
Dew point22.9°C (73.2°F)
Winds 9 kts (4.6 m/s, 10.4 mph) Southwest (220°)
Visibility10 mi. (16.1 km)
Clouds Ceiling: Overcast 1,100 ft. (335 m)
Altimeter29.82 in.Hg (1010 mB)
Relative humidity96 %
Density altitude1,489 ft. (454 m)
Remarks Fully automated report
Automated weather observing station with precipitation discriminator
Flight conditions Marginal Visual Meteorological Conditions
Raw dataKIGQ 161455Z AUTO 22009KT 10SM OVC011 24/23 A2982 RMK AO2 6//// T02360229
An error has occurred. This application may no longer respond until reloaded. Reload 🗙